Terminal Aerodrome Forecast
Issued by NWS

Current Version | Previous Version | Text Only | Print | Product List | Glossary On
Versions: 1 2 3 4 5 6 7 8 9 10 11 12 13 14 15 16 17 18 19 20 21 22 23 24 25 26 27 28
000
FTUS44 KHGX 101720
TAFSGR
TAF
KSGR 101720Z 1018/1118 20012KT P6SM FEW045 SCT250
     FM101900 17009KT P6SM FEW050
     FM110200 17005KT P6SM SKC
     FM111500 18006KT P6SM FEW035=

USA.gov is the U.S. government's official web portal to all federal, state and local government web resources and services.